Cadete FAP Guillermo Del Castillo Paredes Airport


Codes: SPST/TPP
Name: Cadete FAP Guillermo Del Castillo Paredes Airport
City: Tarapoto
Country: Peru
Elevation: 869 ft.
Wikipedia:

Photos at Cadete FAP Guillermo Del Castillo Paredes Airport


   Photos courtesy of SpottingLog. You can add your own sightings and photos by signing up for a free trial today.



No photos found.

Weather at Cadete FAP Guillermo Del Castillo Paredes Airport


Time (UTC)DescriptionTempratureWindCloud coverageVisibilityPressureHumidity
26-Jun-2024 00:00Overcast Clouds26°C4 mph, N100%10000m1012hPa100%
26-Jun-2024 03:00Overcast Clouds26°C2 mph, N100%10000m1013hPa93%
26-Jun-2024 06:00Overcast Clouds24°C2 mph, N100%10000m1013hPa89%
26-Jun-2024 09:00Light Rain23°C0 mph, NW92%10000m1014hPa84%
26-Jun-2024 12:00Light Rain23°C0 mph, S88%10000m1015hPa87%
26-Jun-2024 15:00Light Rain29°C2 mph, S66%10000m1016hPa64%
26-Jun-2024 18:00Moderate Rain27°C2 mph, N41%10000m1014hPa93%
26-Jun-2024 21:00Light Rain32°C2 mph, NE1%10000m1010hPa47%
27-Jun-2024 00:00Light Rain24°C2 mph, N4%10000m1012hPa84%
27-Jun-2024 03:00Light Rain22°C2 mph, NW24%10000m1014hPa92%
27-Jun-2024 06:00Light Rain21°C2 mph, NW17%10000m1014hPa98%
27-Jun-2024 09:00Light Rain20°C2 mph, NW28%10000m1014hPa101%
27-Jun-2024 12:00Light Rain21°C2 mph, W38%10000m1015hPa98%
27-Jun-2024 15:00Light Rain30°C2 mph, S14%10000m1015hPa58%
27-Jun-2024 18:00Light Rain31°C2 mph, N9%10000m1012hPa57%
27-Jun-2024 21:00Light Rain31°C2 mph, N24%10000m1009hPa50%
28-Jun-2024 00:00Few Clouds25°C2 mph, N21%10000m1010hPa78%
28-Jun-2024 03:00Scattered Clouds23°C2 mph, N30%10000m1013hPa91%
28-Jun-2024 06:00Few Clouds22°C2 mph, NW24%10000m1012hPa90%
28-Jun-2024 09:00Few Clouds21°C2 mph, NW24%10000m1011hPa89%
28-Jun-2024 12:00Broken Clouds22°C2 mph, W55%10000m1013hPa85%
28-Jun-2024 15:00Overcast Clouds30°C2 mph, S100%10000m1013hPa55%
28-Jun-2024 18:00Overcast Clouds34°C2 mph, E100%10000m1010hPa41%
28-Jun-2024 21:00Overcast Clouds32°C4 mph, NE94%10000m1008hPa48%
29-Jun-2024 00:00Broken Clouds25°C2 mph, N84%10000m1010hPa74%
29-Jun-2024 03:00Broken Clouds24°C2 mph, N73%10000m1012hPa77%
29-Jun-2024 06:00Broken Clouds24°C2 mph, N81%10000m1012hPa79%
29-Jun-2024 09:00Light Rain23°C2 mph, W100%10000m1012hPa87%
29-Jun-2024 12:00Overcast Clouds24°C0 mph, SW100%10000m1014hPa84%
29-Jun-2024 15:00Overcast Clouds29°C2 mph, S99%10000m1015hPa59%
29-Jun-2024 18:00Light Rain32°C4 mph, NW83%10000m1013hPa52%
29-Jun-2024 21:00Overcast Clouds32°C2 mph, N100%10000m1010hPa51%
30-Jun-2024 00:00Light Rain25°C2 mph, N91%10000m1013hPa79%
30-Jun-2024 03:00Overcast Clouds25°C2 mph, NW85%10000m1014hPa78%
30-Jun-2024 06:00Overcast Clouds25°C2 mph, NW94%10000m1014hPa76%
30-Jun-2024 09:00Overcast Clouds25°C2 mph, SW100%10000m1013hPa78%
30-Jun-2024 12:00Broken Clouds23°C2 mph, W72%10000m1015hPa87%
30-Jun-2024 15:00Few Clouds31°C0 mph, SE12%10000m1016hPa54%
30-Jun-2024 18:00Few Clouds35°C2 mph, E12%10000m1012hPa40%
30-Jun-2024 21:00Broken Clouds29°C2 mph, E84%10000m1010hPa64%